sensor_id;sensor_type;location;lat;lon;timestamp;P1;durP1;ratioP1;P2;durP2;ratioP2
31081;SDS011;17737;52.586;13.284;2022-09-23T00:02:00;0.63;;;0.63;;
31081;SDS011;17737;52.586;13.284;2022-09-23T00:04:30;0.60;;;0.60;;
31081;SDS011;17737;52.586;13.284;2022-09-23T00:06:58;0.68;;;0.68;;
31081;SDS011;17737;52.586;13.284;2022-09-23T00:09:26;0.77;;;0.65;;
31081;SDS011;17737;52.586;13.284;2022-09-23T00:11:54;0.50;;;0.50;;
31081;SDS011;17737;52.586;13.284;2022-09-23T00:14:22;0.60;;;0.60;;
31081;SDS011;17737;52.586;13.284;2022-09-23T00:16:50;0.60;;;0.60;;
31081;SDS011;17737;52.586;13.284;2022-09-23T00:19:18;0.70;;;0.70;;
31081;SDS011;17737;52.586;13.284;2022-09-23T00:21:48;0.60;;;0.60;;
31081;SDS011;17737;52.586;13.284;2022-09-23T00:24:16;0.50;;;0.50;;
31081;SDS011;17737;52.586;13.284;2022-09-23T00:26:44;0.60;;;0.60;;
31081;SDS011;17737;52.586;13.284;2022-09-23T00:29:12;0.60;;;0.60;;
31081;SDS011;17737;52.586;13.284;2022-09-23T00:31:41;0.60;;;0.60;;
31081;SDS011;17737;52.586;13.284;2022-09-23T00:34:09;0.63;;;0.60;;
31081;SDS011;17737;52.586;13.284;2022-09-23T00:36:38;0.60;;;0.60;;
31081;SDS011;17737;52.586;13.284;2022-09-23T00:39:07;0.50;;;0.50;;
31081;SDS011;17737;52.586;13.284;2022-09-23T00:41:35;0.52;;;0.52;;
31081;SDS011;17737;52.586;13.284;2022-09-23T00:47:09;0.60;;;0.50;;
31081;SDS011;17737;52.586;13.284;2022-09-23T00:49:44;0.60;;;0.60;;
31081;SDS011;17737;52.586;13.284;2022-09-23T00:52:18;0.60;;;0.60;;
31081;SDS011;17737;52.586;13.284;2022-09-23T00:54:52;0.63;;;0.63;;
31081;SDS011;17737;52.586;13.284;2022-09-23T00:57:24;0.70;;;0.70;;
31081;SDS011;17737;52.586;13.284;2022-09-23T00:59:55;0.68;;;0.68;;
31081;SDS011;17737;52.586;13.284;2022-09-23T01:02:24;0.40;;;0.40;;
31081;SDS011;17737;52.586;13.284;2022-09-23T01:04:53;0.50;;;0.50;;
31081;SDS011;17737;52.586;13.284;2022-09-23T01:07:21;0.50;;;0.50;;
31081;SDS011;17737;52.586;13.284;2022-09-23T01:09:51;0.60;;;0.60;;
31081;SDS011;17737;52.586;13.284;2022-09-23T01:12:25;0.60;;;0.55;;
31081;SDS011;17737;52.586;13.284;2022-09-23T01:15:23;0.50;;;0.50;;
31081;SDS011;17737;52.586;13.284;2022-09-23T01:18:02;0.52;;;0.52;;
31081;SDS011;17737;52.586;13.284;2022-09-23T01:20:57;0.40;;;0.40;;
31081;SDS011;17737;52.586;13.284;2022-09-23T01:23:49;0.50;;;0.50;;
31081;SDS011;17737;52.586;13.284;2022-09-23T01:26:55;0.60;;;0.60;;
31081;SDS011;17737;52.586;13.284;2022-09-23T01:32:34;0.50;;;0.50;;
31081;SDS011;17737;52.586;13.284;2022-09-23T01:35:21;0.40;;;0.40;;
31081;SDS011;17737;52.586;13.284;2022-09-23T01:37:58;0.57;;;0.57;;
31081;SDS011;17737;52.586;13.284;2022-09-23T01:40:44;0.40;;;0.40;;
31081;SDS011;17737;52.586;13.284;2022-09-23T01:43:20;0.50;;;0.50;;
31081;SDS011;17737;52.586;13.284;2022-09-23T01:45:59;0.55;;;0.50;;
31081;SDS011;17737;52.586;13.284;2022-09-23T01:48:35;0.93;;;0.55;;
31081;SDS011;17737;52.586;13.284;2022-09-23T01:51:12;0.65;;;0.65;;
31081;SDS011;17737;52.586;13.284;2022-09-23T01:53:47;0.57;;;0.57;;
31081;SDS011;17737;52.586;13.284;2022-09-23T01:56:23;0.55;;;0.55;;
31081;SDS011;17737;52.586;13.284;2022-09-23T01:58:58;0.50;;;0.50;;
31081;SDS011;17737;52.586;13.284;2022-09-23T02:01:38;0.52;;;0.52;;
31081;SDS011;17737;52.586;13.284;2022-09-23T02:04:15;0.50;;;0.50;;
31081;SDS011;17737;52.586;13.284;2022-09-23T02:06:49;0.65;;;0.65;;
31081;SDS011;17737;52.586;13.284;2022-09-23T02:09:24;0.60;;;0.60;;
31081;SDS011;17737;52.586;13.284;2022-09-23T02:12:03;0.52;;;0.52;;
31081;SDS011;17737;52.586;13.284;2022-09-23T02:14:40;0.98;;;0.57;;
31081;SDS011;17737;52.586;13.284;2022-09-23T02:17:17;0.50;;;0.50;;
31081;SDS011;17737;52.586;13.284;2022-09-23T02:19:54;0.70;;;0.70;;
31081;SDS011;17737;52.586;13.284;2022-09-23T02:22:29;0.50;;;0.50;;
31081;SDS011;17737;52.586;13.284;2022-09-23T02:25:07;0.60;;;0.60;;
31081;SDS011;17737;52.586;13.284;2022-09-23T02:27:38;0.63;;;0.63;;
31081;SDS011;17737;52.586;13.284;2022-09-23T02:30:13;0.60;;;0.60;;
31081;SDS011;17737;52.586;13.284;2022-09-23T02:32:47;0.70;;;0.70;;
31081;SDS011;17737;52.586;13.284;2022-09-23T02:35:28;0.50;;;0.50;;
31081;SDS011;17737;52.586;13.284;2022-09-23T02:38:06;0.52;;;0.52;;
31081;SDS011;17737;52.586;13.284;2022-09-23T02:40:51;1.27;;;0.50;;
31081;SDS011;17737;52.586;13.284;2022-09-23T02:43:26;0.77;;;0.77;;
31081;SDS011;17737;52.586;13.284;2022-09-23T02:48:34;0.60;;;0.60;;
31081;SDS011;17737;52.586;13.284;2022-09-23T02:51:09;0.65;;;0.65;;
31081;SDS011;17737;52.586;13.284;2022-09-23T02:53:37;0.82;;;0.82;;
31081;SDS011;17737;52.586;13.284;2022-09-23T02:56:12;0.70;;;0.70;;
31081;SDS011;17737;52.586;13.284;2022-09-23T02:58:42;0.40;;;0.40;;
31081;SDS011;17737;52.586;13.284;2022-09-23T03:01:16;0.70;;;0.70;;
31081;SDS011;17737;52.586;13.284;2022-09-23T03:04:01;0.60;;;0.60;;
31081;SDS011;17737;52.586;13.284;2022-09-23T03:06:48;0.98;;;0.80;;
31081;SDS011;17737;52.586;13.284;2022-09-23T03:09:28;0.50;;;0.50;;
31081;SDS011;17737;52.586;13.284;2022-09-23T03:12:07;0.70;;;0.70;;
31081;SDS011;17737;52.586;13.284;2022-09-23T03:14:49;0.68;;;0.68;;
31081;SDS011;17737;52.586;13.284;2022-09-23T03:17:26;0.70;;;0.70;;
31081;SDS011;17737;52.586;13.284;2022-09-23T03:20:04;0.60;;;0.60;;
31081;SDS011;17737;52.586;13.284;2022-09-23T03:22:41;0.60;;;0.60;;
31081;SDS011;17737;52.586;13.284;2022-09-23T03:25:15;0.55;;;0.55;;
31081;SDS011;17737;52.586;13.284;2022-09-23T03:27:50;0.70;;;0.70;;
31081;SDS011;17737;52.586;13.284;2022-09-23T03:30:23;0.70;;;0.70;;
31081;SDS011;17737;52.586;13.284;2022-09-23T03:32:52;0.70;;;0.70;;
31081;SDS011;17737;52.586;13.284;2022-09-23T03:35:25;0.70;;;0.70;;
31081;SDS011;17737;52.586;13.284;2022-09-23T03:38:21;0.60;;;0.60;;
31081;SDS011;17737;52.586;13.284;2022-09-23T03:40:52;0.55;;;0.55;;
31081;SDS011;17737;52.586;13.284;2022-09-23T03:43:26;0.68;;;0.68;;
31081;SDS011;17737;52.586;13.284;2022-09-23T03:45:55;0.60;;;0.60;;
31081;SDS011;17737;52.586;13.284;2022-09-23T03:48:24;0.70;;;0.70;;
31081;SDS011;17737;52.586;13.284;2022-09-23T03:50:52;0.68;;;0.68;;
31081;SDS011;17737;52.586;13.284;2022-09-23T03:53:21;0.40;;;0.40;;
31081;SDS011;17737;52.586;13.284;2022-09-23T03:55:49;0.60;;;0.60;;
31081;SDS011;17737;52.586;13.284;2022-09-23T03:58:17;0.65;;;0.60;;
31081;SDS011;17737;52.586;13.284;2022-09-23T04:00:45;0.90;;;0.80;;
31081;SDS011;17737;52.586;13.284;2022-09-23T04:03:14;0.70;;;0.57;;
31081;SDS011;17737;52.586;13.284;2022-09-23T04:05:44;0.60;;;0.60;;
31081;SDS011;17737;52.586;13.284;2022-09-23T04:08:13;0.50;;;0.50;;
31081;SDS011;17737;52.586;13.284;2022-09-23T04:10:42;0.77;;;0.77;;
31081;SDS011;17737;52.586;13.284;2022-09-23T04:13:12;0.75;;;0.60;;
31081;SDS011;17737;52.586;13.284;2022-09-23T04:15:40;0.75;;;0.60;;
31081;SDS011;17737;52.586;13.284;2022-09-23T04:18:08;0.63;;;0.63;;
31081;SDS011;17737;52.586;13.284;2022-09-23T04:20:37;0.55;;;0.55;;
31081;SDS011;17737;52.586;13.284;2022-09-23T04:23:05;0.60;;;0.60;;
31081;SDS011;17737;52.586;13.284;2022-09-23T04:25:33;1.20;;;0.70;;
31081;SDS011;17737;52.586;13.284;2022-09-23T04:28:02;0.85;;;0.80;;
31081;SDS011;17737;52.586;13.284;2022-09-23T04:30:30;0.60;;;0.60;;
31081;SDS011;17737;52.586;13.284;2022-09-23T04:32:58;0.73;;;0.60;;
31081;SDS011;17737;52.586;13.284;2022-09-23T04:35:26;0.60;;;0.60;;
31081;SDS011;17737;52.586;13.284;2022-09-23T04:37:55;0.60;;;0.60;;
31081;SDS011;17737;52.586;13.284;2022-09-23T04:40:23;0.60;;;0.60;;
31081;SDS011;17737;52.586;13.284;2022-09-23T04:42:51;0.50;;;0.50;;
31081;SDS011;17737;52.586;13.284;2022-09-23T04:45:20;0.60;;;0.60;;
31081;SDS011;17737;52.586;13.284;2022-09-23T04:47:48;0.70;;;0.70;;
31081;SDS011;17737;52.586;13.284;2022-09-23T04:50:16;0.50;;;0.50;;
31081;SDS011;17737;52.586;13.284;2022-09-23T04:52:45;0.50;;;0.50;;
31081;SDS011;17737;52.586;13.284;2022-09-23T04:55:12;0.65;;;0.50;;
31081;SDS011;17737;52.586;13.284;2022-09-23T04:57:40;0.40;;;0.40;;
31081;SDS011;17737;52.586;13.284;2022-09-23T05:00:09;0.50;;;0.50;;
31081;SDS011;17737;52.586;13.284;2022-09-23T05:02:42;0.80;;;0.80;;
31081;SDS011;17737;52.586;13.284;2022-09-23T05:05:11;0.70;;;0.70;;
31081;SDS011;17737;52.586;13.284;2022-09-23T05:07:40;0.77;;;0.77;;
31081;SDS011;17737;52.586;13.284;2022-09-23T05:10:08;0.60;;;0.60;;
31081;SDS011;17737;52.586;13.284;2022-09-23T05:12:36;0.77;;;0.73;;
31081;SDS011;17737;52.586;13.284;2022-09-23T05:15:04;0.73;;;0.73;;
31081;SDS011;17737;52.586;13.284;2022-09-23T05:17:33;0.60;;;0.60;;
31081;SDS011;17737;52.586;13.284;2022-09-23T05:20:04;0.80;;;0.80;;
31081;SDS011;17737;52.586;13.284;2022-09-23T05:22:33;0.80;;;0.80;;
31081;SDS011;17737;52.586;13.284;2022-09-23T05:25:02;1.38;;;1.10;;
31081;SDS011;17737;52.586;13.284;2022-09-23T05:27:30;0.60;;;0.60;;
31081;SDS011;17737;52.586;13.284;2022-09-23T05:29:58;1.08;;;0.73;;
31081;SDS011;17737;52.586;13.284;2022-09-23T05:32:26;0.82;;;0.70;;
31081;SDS011;17737;52.586;13.284;2022-09-23T05:34:54;0.80;;;0.60;;
31081;SDS011;17737;52.586;13.284;2022-09-23T05:37:25;0.70;;;0.60;;
31081;SDS011;17737;52.586;13.284;2022-09-23T05:39:53;0.43;;;0.43;;
31081;SDS011;17737;52.586;13.284;2022-09-23T05:42:24;0.60;;;0.60;;
31081;SDS011;17737;52.586;13.284;2022-09-23T05:44:51;0.50;;;0.50;;
31081;SDS011;17737;52.586;13.284;2022-09-23T05:47:20;0.60;;;0.60;;
31081;SDS011;17737;52.586;13.284;2022-09-23T05:49:48;0.68;;;0.68;;
31081;SDS011;17737;52.586;13.284;2022-09-23T05:52:27;1.08;;;0.70;;
31081;SDS011;17737;52.586;13.284;2022-09-23T05:54:54;0.70;;;0.70;;
31081;SDS011;17737;52.586;13.284;2022-09-23T05:57:22;0.38;;;0.38;;
31081;SDS011;17737;52.586;13.284;2022-09-23T05:59:50;0.70;;;0.70;;
31081;SDS011;17737;52.586;13.284;2022-09-23T06:02:18;0.68;;;0.60;;
31081;SDS011;17737;52.586;13.284;2022-09-23T06:04:46;0.73;;;0.52;;
31081;SDS011;17737;52.586;13.284;2022-09-23T06:07:14;0.60;;;0.60;;
31081;SDS011;17737;52.586;13.284;2022-09-23T06:09:43;0.73;;;0.70;;
31081;SDS011;17737;52.586;13.284;2022-09-23T06:12:11;0.55;;;0.55;;
31081;SDS011;17737;52.586;13.284;2022-09-23T06:14:40;0.60;;;0.60;;
31081;SDS011;17737;52.586;13.284;2022-09-23T06:17:08;0.52;;;0.50;;
31081;SDS011;17737;52.586;13.284;2022-09-23T06:19:36;0.50;;;0.50;;
31081;SDS011;17737;52.586;13.284;2022-09-23T06:22:04;0.55;;;0.50;;
31081;SDS011;17737;52.586;13.284;2022-09-23T06:24:45;0.82;;;0.60;;
31081;SDS011;17737;52.586;13.284;2022-09-23T06:27:16;0.68;;;0.55;;
31081;SDS011;17737;52.586;13.284;2022-09-23T06:29:44;0.70;;;0.55;;
31081;SDS011;17737;52.586;13.284;2022-09-23T06:32:12;0.95;;;0.70;;
31081;SDS011;17737;52.586;13.284;2022-09-23T06:34:39;0.60;;;0.60;;
31081;SDS011;17737;52.586;13.284;2022-09-23T06:37:17;0.88;;;0.65;;
31081;SDS011;17737;52.586;13.284;2022-09-23T06:39:47;0.60;;;0.60;;
31081;SDS011;17737;52.586;13.284;2022-09-23T06:42:15;0.60;;;0.60;;
31081;SDS011;17737;52.586;13.284;2022-09-23T06:44:43;1.65;;;0.60;;
31081;SDS011;17737;52.586;13.284;2022-09-23T06:47:11;0.50;;;0.50;;
31081;SDS011;17737;52.586;13.284;2022-09-23T06:49:39;0.47;;;0.47;;
31081;SDS011;17737;52.586;13.284;2022-09-23T06:52:07;0.60;;;0.60;;
31081;SDS011;17737;52.586;13.284;2022-09-23T06:54:35;0.50;;;0.50;;
31081;SDS011;17737;52.586;13.284;2022-09-23T06:57:04;1.00;;;0.50;;
31081;SDS011;17737;52.586;13.284;2022-09-23T07:02:01;0.50;;;0.50;;
31081;SDS011;17737;52.586;13.284;2022-09-23T07:04:29;0.50;;;0.50;;
31081;SDS011;17737;52.586;13.284;2022-09-23T07:06:57;0.50;;;0.50;;
31081;SDS011;17737;52.586;13.284;2022-09-23T07:09:25;0.57;;;0.57;;
31081;SDS011;17737;52.586;13.284;2022-09-23T07:11:55;0.50;;;0.50;;
31081;SDS011;17737;52.586;13.284;2022-09-23T07:14:27;0.60;;;0.60;;
31081;SDS011;17737;52.586;13.284;2022-09-23T07:16:55;0.50;;;0.50;;
31081;SDS011;17737;52.586;13.284;2022-09-23T07:19:25;0.40;;;0.40;;
31081;SDS011;17737;52.586;13.284;2022-09-23T07:21:53;0.40;;;0.40;;
31081;SDS011;17737;52.586;13.284;2022-09-23T07:24:20;0.50;;;0.50;;
31081;SDS011;17737;52.586;13.284;2022-09-23T07:26:49;0.40;;;0.40;;
31081;SDS011;17737;52.586;13.284;2022-09-23T07:29:16;0.43;;;0.43;;
31081;SDS011;17737;52.586;13.284;2022-09-23T07:31:46;0.43;;;0.43;;
31081;SDS011;17737;52.586;13.284;2022-09-23T07:34:13;0.50;;;0.40;;
31081;SDS011;17737;52.586;13.284;2022-09-23T07:36:41;0.35;;;0.35;;
31081;SDS011;17737;52.586;13.284;2022-09-23T07:39:10;0.38;;;0.38;;
31081;SDS011;17737;52.586;13.284;2022-09-23T07:41:39;0.30;;;0.30;;
31081;SDS011;17737;52.586;13.284;2022-09-23T07:44:10;0.20;;;0.20;;
31081;SDS011;17737;52.586;13.284;2022-09-23T07:46:38;0.35;;;0.35;;
31081;SDS011;17737;52.586;13.284;2022-09-23T07:49:07;0.38;;;0.38;;
31081;SDS011;17737;52.586;13.284;2022-09-23T07:51:36;0.20;;;0.20;;
31081;SDS011;17737;52.586;13.284;2022-09-23T07:54:09;0.38;;;0.38;;
31081;SDS011;17737;52.586;13.284;2022-09-23T07:56:40;0.40;;;0.40;;
31081;SDS011;17737;52.586;13.284;2022-09-23T07:59:11;0.30;;;0.30;;
31081;SDS011;17737;52.586;13.284;2022-09-23T08:01:44;0.40;;;0.40;;
31081;SDS011;17737;52.586;13.284;2022-09-23T08:04:17;0.30;;;0.30;;
31081;SDS011;17737;52.586;13.284;2022-09-23T08:06:50;0.40;;;0.40;;
31081;SDS011;17737;52.586;13.284;2022-09-23T08:09:21;0.38;;;0.38;;
31081;SDS011;17737;52.586;13.284;2022-09-23T08:11:52;0.40;;;0.40;;
31081;SDS011;17737;52.586;13.284;2022-09-23T08:14:20;0.30;;;0.30;;
31081;SDS011;17737;52.586;13.284;2022-09-23T08:16:48;0.30;;;0.30;;
31081;SDS011;17737;52.586;13.284;2022-09-23T08:19:18;0.40;;;0.40;;
31081;SDS011;17737;52.586;13.284;2022-09-23T08:21:46;0.32;;;0.32;;
31081;SDS011;17737;52.586;13.284;2022-09-23T08:24:18;0.30;;;0.30;;
31081;SDS011;17737;52.586;13.284;2022-09-23T08:26:49;0.20;;;0.20;;
31081;SDS011;17737;52.586;13.284;2022-09-23T08:29:20;0.30;;;0.30;;
31081;SDS011;17737;52.586;13.284;2022-09-23T08:31:50;0.40;;;0.40;;
31081;SDS011;17737;52.586;13.284;2022-09-23T08:34:21;0.30;;;0.30;;
31081;SDS011;17737;52.586;13.284;2022-09-23T08:36:49;0.30;;;0.30;;
31081;SDS011;17737;52.586;13.284;2022-09-23T08:39:18;0.30;;;0.30;;
31081;SDS011;17737;52.586;13.284;2022-09-23T08:41:50;0.20;;;0.20;;
31081;SDS011;17737;52.586;13.284;2022-09-23T08:44:41;0.30;;;0.30;;
31081;SDS011;17737;52.586;13.284;2022-09-23T08:47:16;0.20;;;0.20;;
31081;SDS011;17737;52.586;13.284;2022-09-23T08:49:56;0.30;;;0.30;;
31081;SDS011;17737;52.586;13.284;2022-09-23T08:52:33;0.30;;;0.30;;
31081;SDS011;17737;52.586;13.284;2022-09-23T08:55:09;0.20;;;0.20;;
31081;SDS011;17737;52.586;13.284;2022-09-23T08:57:42;0.32;;;0.32;;
31081;SDS011;17737;52.586;13.284;2022-09-23T09:00:52;0.22;;;0.22;;
31081;SDS011;17737;52.586;13.284;2022-09-23T09:03:33;0.38;;;0.38;;
31081;SDS011;17737;52.586;13.284;2022-09-23T09:06:08;0.40;;;0.40;;
31081;SDS011;17737;52.586;13.284;2022-09-23T09:08:46;0.35;;;0.35;;
31081;SDS011;17737;52.586;13.284;2022-09-23T09:11:26;0.30;;;0.30;;
31081;SDS011;17737;52.586;13.284;2022-09-23T09:14:10;0.30;;;0.30;;
31081;SDS011;17737;52.586;13.284;2022-09-23T09:16:51;0.20;;;0.20;;
31081;SDS011;17737;52.586;13.284;2022-09-23T09:19:41;0.20;;;0.20;;
31081;SDS011;17737;52.586;13.284;2022-09-23T09:22:26;0.30;;;0.30;;
31081;SDS011;17737;52.586;13.284;2022-09-23T09:25:21;0.20;;;0.20;;
31081;SDS011;17737;52.586;13.284;2022-09-23T09:28:02;0.30;;;0.30;;
31081;SDS011;17737;52.586;13.284;2022-09-23T09:30:42;0.32;;;0.32;;
31081;SDS011;17737;52.586;13.284;2022-09-23T09:33:14;0.30;;;0.30;;
31081;SDS011;17737;52.586;13.284;2022-09-23T09:35:55;0.30;;;0.30;;
31081;SDS011;17737;52.586;13.284;2022-09-23T09:38:39;0.30;;;0.30;;
31081;SDS011;17737;52.586;13.284;2022-09-23T09:41:09;0.22;;;0.22;;
31081;SDS011;17737;52.586;13.284;2022-09-23T09:43:43;0.30;;;0.30;;
31081;SDS011;17737;52.586;13.284;2022-09-23T09:46:22;0.28;;;0.28;;
31081;SDS011;17737;52.586;13.284;2022-09-23T09:49:07;0.30;;;0.30;;
31081;SDS011;17737;52.586;13.284;2022-09-23T09:51:49;0.22;;;0.22;;
31081;SDS011;17737;52.586;13.284;2022-09-23T09:54:50;0.20;;;0.20;;
31081;SDS011;17737;52.586;13.284;2022-09-23T09:57:29;0.30;;;0.30;;
31081;SDS011;17737;52.586;13.284;2022-09-23T10:00:16;0.25;;;0.25;;
31081;SDS011;17737;52.586;13.284;2022-09-23T10:03:02;0.28;;;0.28;;
31081;SDS011;17737;52.586;13.284;2022-09-23T10:05:50;0.40;;;0.40;;
31081;SDS011;17737;52.586;13.284;2022-09-23T10:08:24;0.30;;;0.30;;
31081;SDS011;17737;52.586;13.284;2022-09-23T10:11:02;0.30;;;0.30;;
31081;SDS011;17737;52.586;13.284;2022-09-23T10:13:33;0.20;;;0.20;;
31081;SDS011;17737;52.586;13.284;2022-09-23T10:16:02;0.20;;;0.20;;
31081;SDS011;17737;52.586;13.284;2022-09-23T10:18:33;0.20;;;0.20;;
31081;SDS011;17737;52.586;13.284;2022-09-23T10:21:06;0.20;;;0.20;;
31081;SDS011;17737;52.586;13.284;2022-09-23T10:23:39;0.73;;;0.35;;
31081;SDS011;17737;52.586;13.284;2022-09-23T10:26:12;0.30;;;0.30;;
31081;SDS011;17737;52.586;13.284;2022-09-23T10:28:45;0.30;;;0.30;;
31081;SDS011;17737;52.586;13.284;2022-09-23T10:31:20;0.20;;;0.20;;
31081;SDS011;17737;52.586;13.284;2022-09-23T10:33:52;0.30;;;0.30;;
31081;SDS011;17737;52.586;13.284;2022-09-23T10:36:25;0.30;;;0.30;;
31081;SDS011;17737;52.586;13.284;2022-09-23T10:41:53;0.30;;;0.30;;
31081;SDS011;17737;52.586;13.284;2022-09-23T10:45:00;0.20;;;0.20;;
31081;SDS011;17737;52.586;13.284;2022-09-23T10:48:07;0.20;;;0.20;;
31081;SDS011;17737;52.586;13.284;2022-09-23T10:50:52;0.20;;;0.20;;
31081;SDS011;17737;52.586;13.284;2022-09-23T10:53:27;0.20;;;0.20;;
31081;SDS011;17737;52.586;13.284;2022-09-23T10:56:10;0.30;;;0.30;;
31081;SDS011;17737;52.586;13.284;2022-09-23T11:02:17;0.30;;;0.30;;
31081;SDS011;17737;52.586;13.284;2022-09-23T11:05:13;0.20;;;0.20;;
31081;SDS011;17737;52.586;13.284;2022-09-23T11:08:05;0.30;;;0.30;;
31081;SDS011;17737;52.586;13.284;2022-09-23T11:10:59;0.30;;;0.30;;
31081;SDS011;17737;52.586;13.284;2022-09-23T11:13:55;0.20;;;0.20;;
31081;SDS011;17737;52.586;13.284;2022-09-23T11:16:48;0.20;;;0.20;;
31081;SDS011;17737;52.586;13.284;2022-09-23T11:19:57;0.20;;;0.20;;
31081;SDS011;17737;52.586;13.284;2022-09-23T11:22:56;0.20;;;0.20;;
31081;SDS011;17737;52.586;13.284;2022-09-23T11:25:57;0.20;;;0.20;;
31081;SDS011;17737;52.586;13.284;2022-09-23T11:31:49;0.17;;;0.17;;
31081;SDS011;17737;52.586;13.284;2022-09-23T11:34:39;0.20;;;0.20;;
31081;SDS011;17737;52.586;13.284;2022-09-23T11:37:32;0.20;;;0.20;;
31081;SDS011;17737;52.586;13.284;2022-09-23T11:40:11;0.20;;;0.20;;
31081;SDS011;17737;52.586;13.284;2022-09-23T11:42:49;0.20;;;0.20;;
31081;SDS011;17737;52.586;13.284;2022-09-23T11:45:26;0.20;;;0.20;;
31081;SDS011;17737;52.586;13.284;2022-09-23T11:48:03;0.20;;;0.20;;
31081;SDS011;17737;52.586;13.284;2022-09-23T11:50:41;0.20;;;0.20;;
31081;SDS011;17737;52.586;13.284;2022-09-23T11:53:17;0.22;;;0.22;;
31081;SDS011;17737;52.586;13.284;2022-09-23T11:55:55;0.20;;;0.20;;
31081;SDS011;17737;52.586;13.284;2022-09-23T11:58:34;0.20;;;0.20;;
31081;SDS011;17737;52.586;13.284;2022-09-23T12:01:18;0.20;;;0.20;;
31081;SDS011;17737;52.586;13.284;2022-09-23T12:04:05;0.20;;;0.20;;
31081;SDS011;17737;52.586;13.284;2022-09-23T12:06:47;0.20;;;0.20;;
31081;SDS011;17737;52.586;13.284;2022-09-23T12:09:23;0.20;;;0.20;;
31081;SDS011;17737;52.586;13.284;2022-09-23T12:12:20;0.20;;;0.20;;
31081;SDS011;17737;52.586;13.284;2022-09-23T12:14:58;0.30;;;0.30;;
31081;SDS011;17737;52.586;13.284;2022-09-23T12:17:57;0.20;;;0.20;;
31081;SDS011;17737;52.586;13.284;2022-09-23T12:24:21;0.20;;;0.20;;
31081;SDS011;17737;52.586;13.284;2022-09-23T12:27:16;0.20;;;0.20;;
31081;SDS011;17737;52.586;13.284;2022-09-23T12:29:54;0.20;;;0.20;;
31081;SDS011;17737;52.586;13.284;2022-09-23T12:32:28;0.20;;;0.20;;
31081;SDS011;17737;52.586;13.284;2022-09-23T12:34:57;0.20;;;0.20;;
31081;SDS011;17737;52.586;13.284;2022-09-23T12:37:30;0.10;;;0.10;;
31081;SDS011;17737;52.586;13.284;2022-09-23T12:40:05;0.20;;;0.20;;
31081;SDS011;17737;52.586;13.284;2022-09-23T12:42:42;0.20;;;0.20;;
31081;SDS011;17737;52.586;13.284;2022-09-23T12:45:18;0.20;;;0.20;;
31081;SDS011;17737;52.586;13.284;2022-09-23T12:48:07;0.30;;;0.30;;
31081;SDS011;17737;52.586;13.284;2022-09-23T12:51:13;0.20;;;0.20;;
31081;SDS011;17737;52.586;13.284;2022-09-23T12:53:53;0.30;;;0.30;;
31081;SDS011;17737;52.586;13.284;2022-09-23T12:56:57;0.20;;;0.20;;
31081;SDS011;17737;52.586;13.284;2022-09-23T12:59:50;0.25;;;0.25;;
31081;SDS011;17737;52.586;13.284;2022-09-23T13:02:24;0.20;;;0.20;;
31081;SDS011;17737;52.586;13.284;2022-09-23T13:05:09;0.30;;;0.30;;
31081;SDS011;17737;52.586;13.284;2022-09-23T13:08:05;0.20;;;0.20;;
31081;SDS011;17737;52.586;13.284;2022-09-23T13:10:43;0.20;;;0.20;;
31081;SDS011;17737;52.586;13.284;2022-09-23T13:13:19;0.20;;;0.20;;
31081;SDS011;17737;52.586;13.284;2022-09-23T13:15:53;0.20;;;0.20;;
31081;SDS011;17737;52.586;13.284;2022-09-23T13:18:22;0.20;;;0.20;;
31081;SDS011;17737;52.586;13.284;2022-09-23T13:21:17;0.20;;;0.20;;
31081;SDS011;17737;52.586;13.284;2022-09-23T13:24:46;0.20;;;0.20;;
31081;SDS011;17737;52.586;13.284;2022-09-23T13:27:25;0.20;;;0.20;;
31081;SDS011;17737;52.586;13.284;2022-09-23T13:29:59;0.30;;;0.30;;
31081;SDS011;17737;52.586;13.284;2022-09-23T13:32:52;0.30;;;0.30;;
31081;SDS011;17737;52.586;13.284;2022-09-23T13:35:33;0.20;;;0.20;;
31081;SDS011;17737;52.586;13.284;2022-09-23T13:38:10;0.20;;;0.20;;
31081;SDS011;17737;52.586;13.284;2022-09-23T13:40:51;0.20;;;0.20;;
31081;SDS011;17737;52.586;13.284;2022-09-23T13:43:23;0.20;;;0.20;;
31081;SDS011;17737;52.586;13.284;2022-09-23T13:45:57;0.25;;;0.25;;
31081;SDS011;17737;52.586;13.284;2022-09-23T13:48:30;0.20;;;0.20;;
31081;SDS011;17737;52.586;13.284;2022-09-23T13:50:58;0.30;;;0.30;;
31081;SDS011;17737;52.586;13.284;2022-09-23T13:53:36;0.30;;;0.30;;
31081;SDS011;17737;52.586;13.284;2022-09-23T13:56:06;0.30;;;0.30;;
31081;SDS011;17737;52.586;13.284;2022-09-23T13:58:41;0.30;;;0.30;;
31081;SDS011;17737;52.586;13.284;2022-09-23T14:01:19;0.28;;;0.28;;
31081;SDS011;17737;52.586;13.284;2022-09-23T14:03:50;0.30;;;0.30;;
31081;SDS011;17737;52.586;13.284;2022-09-23T14:06:17;0.30;;;0.30;;
31081;SDS011;17737;52.586;13.284;2022-09-23T14:08:46;0.22;;;0.22;;
31081;SDS011;17737;52.586;13.284;2022-09-23T14:11:18;0.20;;;0.20;;
31081;SDS011;17737;52.586;13.284;2022-09-23T14:13:49;0.30;;;0.30;;
31081;SDS011;17737;52.586;13.284;2022-09-23T14:16:25;0.30;;;0.30;;
31081;SDS011;17737;52.586;13.284;2022-09-23T14:18:55;0.30;;;0.30;;
31081;SDS011;17737;52.586;13.284;2022-09-23T14:21:27;0.20;;;0.20;;
31081;SDS011;17737;52.586;13.284;2022-09-23T14:24:14;0.30;;;0.30;;
31081;SDS011;17737;52.586;13.284;2022-09-23T14:26:47;0.20;;;0.20;;
31081;SDS011;17737;52.586;13.284;2022-09-23T14:29:19;0.20;;;0.20;;
31081;SDS011;17737;52.586;13.284;2022-09-23T14:31:52;0.20;;;0.20;;
31081;SDS011;17737;52.586;13.284;2022-09-23T14:34:39;0.25;;;0.25;;
31081;SDS011;17737;52.586;13.284;2022-09-23T14:37:21;0.20;;;0.20;;
31081;SDS011;17737;52.586;13.284;2022-09-23T14:40:14;0.30;;;0.30;;
31081;SDS011;17737;52.586;13.284;2022-09-23T14:42:46;0.35;;;0.30;;
31081;SDS011;17737;52.586;13.284;2022-09-23T14:45:19;0.20;;;0.20;;
31081;SDS011;17737;52.586;13.284;2022-09-23T14:47:52;0.38;;;0.38;;
31081;SDS011;17737;52.586;13.284;2022-09-23T14:50:28;0.25;;;0.25;;
31081;SDS011;17737;52.586;13.284;2022-09-23T14:58:53;0.20;;;0.20;;
31081;SDS011;17737;52.586;13.284;2022-09-23T15:04:13;0.22;;;0.22;;
31081;SDS011;17737;52.586;13.284;2022-09-23T15:06:46;0.22;;;0.20;;
31081;SDS011;17737;52.586;13.284;2022-09-23T15:09:20;0.32;;;0.32;;
31081;SDS011;17737;52.586;13.284;2022-09-23T15:11:55;0.25;;;0.25;;
31081;SDS011;17737;52.586;13.284;2022-09-23T15:14:29;0.35;;;0.35;;
31081;SDS011;17737;52.586;13.284;2022-09-23T15:17:06;0.20;;;0.20;;
31081;SDS011;17737;52.586;13.284;2022-09-23T15:19:48;0.20;;;0.20;;
31081;SDS011;17737;52.586;13.284;2022-09-23T15:22:21;0.20;;;0.20;;
31081;SDS011;17737;52.586;13.284;2022-09-23T15:24:51;0.20;;;0.20;;
31081;SDS011;17737;52.586;13.284;2022-09-23T15:27:26;0.25;;;0.25;;
31081;SDS011;17737;52.586;13.284;2022-09-23T15:30:06;0.25;;;0.25;;
31081;SDS011;17737;52.586;13.284;2022-09-23T15:32:42;0.20;;;0.20;;
31081;SDS011;17737;52.586;13.284;2022-09-23T15:35:11;0.20;;;0.20;;
31081;SDS011;17737;52.586;13.284;2022-09-23T15:37:41;0.20;;;0.20;;
31081;SDS011;17737;52.586;13.284;2022-09-23T15:40:18;0.28;;;0.28;;
31081;SDS011;17737;52.586;13.284;2022-09-23T15:42:49;0.25;;;0.25;;
31081;SDS011;17737;52.586;13.284;2022-09-23T15:45:27;0.20;;;0.20;;
31081;SDS011;17737;52.586;13.284;2022-09-23T15:48:00;0.20;;;0.20;;
31081;SDS011;17737;52.586;13.284;2022-09-23T15:50:33;0.22;;;0.22;;
31081;SDS011;17737;52.586;13.284;2022-09-23T15:53:03;0.10;;;0.10;;
31081;SDS011;17737;52.586;13.284;2022-09-23T15:55:32;0.20;;;0.20;;